^^
Station Historical Data
Daily Summary for June 9, 2021 Units:  English    Metric   Both
Daily Weekly Monthly Yearly
  High: Low: Average:
Temperature: 75.3 °F 71.8 °F 73.4 °F
Dew Point: 70.1 °F 67.4 °F 68.7 °F
Humidity: 87% 83% 85%
Wind Speed: 1mph 0mph 0.8mph
Wind Gust: 3mph - -
Wind- - East
Pressure: 29.98 in 29.97 in -
Precipitation: 0.00 in    
 
 
Tabular Data for June 9, 2021
Time Temperature Dew Point Pressure Wind Wind Speed Wind Gust Humidity Rainfall Rate (Hourly) solar
00:00 75.3 °F 70.1 °F 29.98 in Calm     84% 0.00 in 0 W/m2
00:05 75.3 °F 69.8 °F 29.98 in Calm   1 mph 83% 0.00 in 0 W/m2
00:10 75.2 °F 69.7 °F 29.98 in SW 1 mph 1 mph 83% 0.00 in 0 W/m2
00:15 75.1 °F 69.6 °F 29.98 in WNW 1 mph 1 mph 83% 0.00 in 0 W/m2
00:20 75.1 °F 69.6 °F 29.98 in North 1 mph 1 mph 83% 0.00 in 0 W/m2
00:25 75 °F 69.5 °F 29.98 in North 1 mph 1 mph 83% 0.00 in 0 W/m2
00:30 74.9 °F 69.4 °F 29.97 in North 1 mph 1 mph 83% 0.00 in 0 W/m2
00:35 74.8 °F 69.3 °F 29.97 in Calm   1 mph 83% 0.00 in 0 W/m2
00:40 74.6 °F 69.1 °F 29.97 in Calm     83% 0.00 in 0 W/m2
00:45 74.6 °F 69.1 °F 29.97 in SSW 1 mph 1 mph 83% 0.00 in 0 W/m2
00:50 74.4 °F 68.9 °F 29.97 in NE 1 mph 1 mph 83% 0.00 in 0 W/m2
00:55 74.3 °F 69.1 °F 29.97 in Calm   1 mph 84% 0.00 in 0 W/m2
01:00 74.3 °F 69.5 °F 29.97 in East 1 mph 2 mph 85% 0.00 in 0 W/m2
01:05 74.3 °F 69.8 °F 29.97 in WSW 1 mph 2 mph 86% 0.00 in 0 W/m2
01:10 74.2 °F 69.7 °F 29.97 in ENE 1 mph 1 mph 86% 0.00 in 0 W/m2
01:15 74.2 °F 69.4 °F 29.97 in Calm   1 mph 85% 0.00 in 0 W/m2
01:20 74.1 °F 69.3 °F 29.98 in Calm   1 mph 85% 0.00 in 0 W/m2
01:25 74.1 °F 69.3 °F 29.98 in North 1 mph 1 mph 85% 0.00 in 0 W/m2
01:30 74.1 °F 69.3 °F 29.98 in North 1 mph 2 mph 85% 0.00 in 0 W/m2
01:35 73.9 °F 69.1 °F 29.98 in North 1 mph 2 mph 85% 0.00 in 0 W/m2
01:40 73.8 °F 69 °F 29.98 in East 1 mph 1 mph 85% 0.00 in 0 W/m2
01:45 73.7 °F 68.6 °F 29.97 in Calm   1 mph 84% 0.00 in 0 W/m2
01:50 73.5 °F 68.7 °F 29.98 in NNE 1 mph 2 mph 85% 0.00 in 0 W/m2
01:55 73.4 °F 68.6 °F 29.98 in NE 1 mph 2 mph 85% 0.00 in 0 W/m2
02:00 73.2 °F 68.8 °F 29.98 in NE 1 mph 1 mph 86% 0.00 in 0 W/m2
02:05 73.2 °F 68.8 °F 29.98 in SE 1 mph 1 mph 86% 0.00 in 0 W/m2
02:10 73 °F 68.6 °F 29.98 in ENE 1 mph 1 mph 86% 0.00 in 0 W/m2
02:15 73 °F 68.6 °F 29.98 in ENE 1 mph 2 mph 86% 0.00 in 0 W/m2
02:20 72.8 °F 68.4 °F 29.98 in ESE 1 mph 1 mph 86% 0.00 in 0 W/m2
02:25 72.6 °F 68.2 °F 29.97 in SE 1 mph 1 mph 86% 0.00 in 0 W/m2
02:30 72.4 °F 68 °F 29.97 in SE 1 mph 1 mph 86% 0.00 in 0 W/m2
02:35 72.3 °F 68.2 °F 29.97 in ENE 1 mph 2 mph 87% 0.00 in 0 W/m2
02:40 72.2 °F 68.1 °F 29.97 in SSW 1 mph 1 mph 87% 0.00 in 0 W/m2
02:45 72.3 °F 68.2 °F 29.97 in ENE 1 mph 3 mph 87% 0.00 in 0 W/m2
02:50 72.2 °F 68.1 °F 29.97 in West 1 mph 1 mph 87% 0.00 in 0 W/m2
02:55 72.2 °F 68.1 °F 29.97 in NE 1 mph 1 mph 87% 0.00 in 0 W/m2
03:00 72.3 °F 68.2 °F 29.98 in ENE 1 mph 1 mph 87% 0.00 in 0 W/m2
03:05 72.3 °F 68.2 °F 29.98 in NNE 1 mph 2 mph 87% 0.00 in 0 W/m2
03:10 72.2 °F 67.8 °F 29.98 in NE 1 mph 1 mph 86% 0.00 in 0 W/m2
03:15 72.2 °F 67.8 °F 29.98 in North 1 mph 1 mph 86% 0.00 in 0 W/m2
03:20 72.1 °F 67.7 °F 29.98 in NE 1 mph 1 mph 86% 0.00 in 0 W/m2
03:25 72 °F 67.6 °F 29.98 in Calm   1 mph 86% 0.00 in 0 W/m2
03:30 71.9 °F 67.5 °F 29.98 in Calm   1 mph 86% 0.00 in 0 W/m2
03:35 71.8 °F 67.4 °F 29.97 in ESE 1 mph 2 mph 86% 0.00 in 0 W/m2
03:40 71.9 °F 67.8 °F 29.97 in ENE 1 mph 1 mph 87% 0.00 in 0 W/m2
03:45 72.1 °F 68 °F 29.98 in ESE 1 mph 2 mph 87% 0.00 in 0 W/m2
Sand Point, Michigan, USA
Compliments of Weather Underground - 2 mb